RUNWAY INFORMATION
Runway Length Width Elevation Displaced
Threshold
Heading | Runway Length Width Elevation Displaced
Threshold
Heading
03 12484 ft 148 ft 331 ft 296 ft 22 | 21 12484 ft 148 ft 347 ft 1969 ft 202
17 7874 ft 148 ft 374 ft 0 ft 168 | 35 7874 ft 148 ft 332 ft 492 ft 348

 AIRPORT FREQUENCIES
Type APP Name APP Frequency 119.1 MHZ
Type ATIS Name ATIS Frequency 124.15 MHZ
Type CLD Name CLD Frequency 118.95 MHZ
Type GND Name GND Frequency 121.75 MHZ
Type INFO Name INFO Frequency 123.75 MHZ
Type RDO Name RDO Frequency 127.9 MHZ
Type TWR Name TWR Frequency 118.1 MHZ

 AIRPORT NEAR NAVIGATION AIDS
Type NDB Name Caparica Frequency 389 KHZ
Type NDB Name Arruda Frequency 382 KHZ
Type VOR-DME Name Lisboa Frequency 114800 KHZ

 METAR AND TAF INFORMATION
METAR FOR LPPT
ADDS - METARS form results

(0719 UTC 19 September 2021)
Data provider http://aviationweather.gov/metar/data/
 
METAR text: LPPT 190700Z 33013KT 9999 FEW010 17/13 Q1020
Conditions at: LPPT (LISBON/PORTELA , PT) observed 0700 UTC 19 September 2021
Temperature: 17.0°C (63°F)
Dewpoint: 13.0°C (55°F) [RH = 77%]
Pressure (altimeter): 30.12 inches Hg (1020.0 mb)
Winds: from the NNW (330 degrees) at 15 MPH (13 knots; 6.7 m/s)
Visibility: 6 or more miles (10+ km)
Ceiling: at least 12,000 feet AGL
Clouds: few clouds at 1000 feet AGL
Weather: no significant weather observed at this time

METAR text: LPPT 190630Z 34014KT 9999 FEW010 17/13 Q1019
Conditions at: LPPT (LISBON/PORTELA , PT) observed 0630 UTC 19 September 2021
Temperature: 17.0°C (63°F)
Dewpoint: 13.0°C (55°F) [RH = 77%]
Pressure (altimeter): 30.09 inches Hg (1019.0 mb)
Winds: from the NNW (340 degrees) at 16 MPH (14 knots; 7.2 m/s)
Visibility: 6 or more miles (10+ km)
Ceiling: at least 12,000 feet AGL
Clouds: few clouds at 1000 feet AGL
Weather: no significant weather observed at this time

Forecast for: LPPT (LISBON/PORTELA , PT)
Text: TAF LPPT 190500Z 1906/2012 35015KT CAVOK
Forecast period: 0600 UTC 19 September 2021 to 1200 UTC 20 September 2021
Forecast type: FROM: standard forecast or significant change
Winds: from the N (350 degrees) at 17 MPH (15 knots; 7.7 m/s)
Visibility: 6 or more miles (10+ km)
Ceiling: unknown
Clouds: missing
Weather: NSW  (no significant weather)
Text: PROB40
Forecast period: 1400 to 2100 UTC 19 September 2021
Forecast type: TEMPORARY: The following changes expected for less than half the time period
Winds: from the N (350 degrees) at 21 MPH (18 knots; 9.3 m/s)
gusting to 34 MPH (30 knots; 15.4 m/s)
Visibility: missing
Ceiling: unknown
Clouds: missing
Weather: no significant weather forecast for this period



© 2013 - 2021, FlightSimLog.org - Powered by Virtual Airlines Manager